sensor_id;sensor_type;location;lat;lon;timestamp;P1;durP1;ratioP1;P2;durP2;ratioP2
29934;SDS011;19905;53.370;-6.314;2023-09-19T00:00:47;26.45;;;3.90;;
29934;SDS011;19905;53.370;-6.314;2023-09-19T00:03:16;28.05;;;3.40;;
29934;SDS011;19905;53.370;-6.314;2023-09-19T00:05:45;32.60;;;3.70;;
29934;SDS011;19905;53.370;-6.314;2023-09-19T00:08:14;21.35;;;3.13;;
29934;SDS011;19905;53.370;-6.314;2023-09-19T00:10:45;22.85;;;3.45;;
29934;SDS011;19905;53.370;-6.314;2023-09-19T00:13:15;17.70;;;3.22;;
29934;SDS011;19905;53.370;-6.314;2023-09-19T00:15:46;24.42;;;2.97;;
29934;SDS011;19905;53.370;-6.314;2023-09-19T00:18:19;24.00;;;3.00;;
29934;SDS011;19905;53.370;-6.314;2023-09-19T00:20:49;20.73;;;3.17;;
29934;SDS011;19905;53.370;-6.314;2023-09-19T00:23:19;24.92;;;3.50;;
29934;SDS011;19905;53.370;-6.314;2023-09-19T00:25:49;20.45;;;3.00;;
29934;SDS011;19905;53.370;-6.314;2023-09-19T00:28:18;22.90;;;3.45;;
29934;SDS011;19905;53.370;-6.314;2023-09-19T00:30:48;23.98;;;3.30;;
29934;SDS011;19905;53.370;-6.314;2023-09-19T00:33:18;27.20;;;3.75;;
29934;SDS011;19905;53.370;-6.314;2023-09-19T00:35:47;23.30;;;3.45;;
29934;SDS011;19905;53.370;-6.314;2023-09-19T00:38:17;25.63;;;3.53;;
29934;SDS011;19905;53.370;-6.314;2023-09-19T00:40:51;18.30;;;2.58;;
29934;SDS011;19905;53.370;-6.314;2023-09-19T00:43:23;23.45;;;2.70;;
29934;SDS011;19905;53.370;-6.314;2023-09-19T00:45:52;20.20;;;2.92;;
29934;SDS011;19905;53.370;-6.314;2023-09-19T00:48:24;26.45;;;3.38;;
29934;SDS011;19905;53.370;-6.314;2023-09-19T00:50:54;21.73;;;3.33;;
29934;SDS011;19905;53.370;-6.314;2023-09-19T00:53:25;25.60;;;3.25;;
29934;SDS011;19905;53.370;-6.314;2023-09-19T00:55:56;28.70;;;3.35;;
29934;SDS011;19905;53.370;-6.314;2023-09-19T00:58:25;27.10;;;3.70;;
29934;SDS011;19905;53.370;-6.314;2023-09-19T01:00:59;25.30;;;3.40;;
29934;SDS011;19905;53.370;-6.314;2023-09-19T01:03:27;24.15;;;3.10;;
29934;SDS011;19905;53.370;-6.314;2023-09-19T01:05:57;26.58;;;3.33;;
29934;SDS011;19905;53.370;-6.314;2023-09-19T01:08:29;28.95;;;3.88;;
29934;SDS011;19905;53.370;-6.314;2023-09-19T01:11:03;26.25;;;3.20;;
29934;SDS011;19905;53.370;-6.314;2023-09-19T01:13:48;26.05;;;3.30;;
29934;SDS011;19905;53.370;-6.314;2023-09-19T01:16:31;21.42;;;3.33;;
29934;SDS011;19905;53.370;-6.314;2023-09-19T01:19:16;25.25;;;3.25;;
29934;SDS011;19905;53.370;-6.314;2023-09-19T01:22:07;19.35;;;3.00;;
29934;SDS011;19905;53.370;-6.314;2023-09-19T01:28:07;17.20;;;2.90;;
29934;SDS011;19905;53.370;-6.314;2023-09-19T01:30:51;21.35;;;3.17;;
29934;SDS011;19905;53.370;-6.314;2023-09-19T01:33:24;13.23;;;2.50;;
29934;SDS011;19905;53.370;-6.314;2023-09-19T01:35:55;14.18;;;2.15;;
29934;SDS011;19905;53.370;-6.314;2023-09-19T01:38:24;19.20;;;2.13;;
29934;SDS011;19905;53.370;-6.314;2023-09-19T01:40:57;19.63;;;2.38;;
29934;SDS011;19905;53.370;-6.314;2023-09-19T01:43:33;10.52;;;2.05;;
29934;SDS011;19905;53.370;-6.314;2023-09-19T01:46:09;18.30;;;1.95;;
29934;SDS011;19905;53.370;-6.314;2023-09-19T01:48:43;13.23;;;2.33;;
29934;SDS011;19905;53.370;-6.314;2023-09-19T01:51:32;13.90;;;2.10;;
29934;SDS011;19905;53.370;-6.314;2023-09-19T01:54:08;15.25;;;2.45;;
29934;SDS011;19905;53.370;-6.314;2023-09-19T01:56:42;16.17;;;2.33;;
29934;SDS011;19905;53.370;-6.314;2023-09-19T01:59:21;15.82;;;2.20;;
29934;SDS011;19905;53.370;-6.314;2023-09-19T02:01:56;14.45;;;2.78;;
29934;SDS011;19905;53.370;-6.314;2023-09-19T02:04:26;18.67;;;2.42;;
29934;SDS011;19905;53.370;-6.314;2023-09-19T02:06:55;19.05;;;2.63;;
29934;SDS011;19905;53.370;-6.314;2023-09-19T02:09:25;15.48;;;2.72;;
29934;SDS011;19905;53.370;-6.314;2023-09-19T02:11:54;13.90;;;2.63;;
29934;SDS011;19905;53.370;-6.314;2023-09-19T02:14:23;14.63;;;2.45;;
29934;SDS011;19905;53.370;-6.314;2023-09-19T02:16:52;11.35;;;2.47;;
29934;SDS011;19905;53.370;-6.314;2023-09-19T02:19:22;15.40;;;2.75;;
29934;SDS011;19905;53.370;-6.314;2023-09-19T02:21:51;14.05;;;2.47;;
29934;SDS011;19905;53.370;-6.314;2023-09-19T02:24:19;14.45;;;2.38;;
29934;SDS011;19905;53.370;-6.314;2023-09-19T02:26:48;18.63;;;2.70;;
29934;SDS011;19905;53.370;-6.314;2023-09-19T02:29:16;17.70;;;2.53;;
29934;SDS011;19905;53.370;-6.314;2023-09-19T02:31:45;16.42;;;2.92;;
29934;SDS011;19905;53.370;-6.314;2023-09-19T02:34:14;15.55;;;2.80;;
29934;SDS011;19905;53.370;-6.314;2023-09-19T02:36:45;22.17;;;2.90;;
29934;SDS011;19905;53.370;-6.314;2023-09-19T02:39:13;19.20;;;3.47;;
29934;SDS011;19905;53.370;-6.314;2023-09-19T02:41:43;17.55;;;2.95;;
29934;SDS011;19905;53.370;-6.314;2023-09-19T02:44:13;16.25;;;3.28;;
29934;SDS011;19905;53.370;-6.314;2023-09-19T02:46:41;21.83;;;3.70;;
29934;SDS011;19905;53.370;-6.314;2023-09-19T02:49:10;19.27;;;3.45;;
29934;SDS011;19905;53.370;-6.314;2023-09-19T02:51:40;17.52;;;3.35;;
29934;SDS011;19905;53.370;-6.314;2023-09-19T02:54:11;23.48;;;3.35;;
29934;SDS011;19905;53.370;-6.314;2023-09-19T02:56:40;17.38;;;3.35;;
29934;SDS011;19905;53.370;-6.314;2023-09-19T02:59:09;19.35;;;3.83;;
29934;SDS011;19905;53.370;-6.314;2023-09-19T03:01:38;20.17;;;2.85;;
29934;SDS011;19905;53.370;-6.314;2023-09-19T03:04:07;17.45;;;3.17;;
29934;SDS011;19905;53.370;-6.314;2023-09-19T03:06:38;17.70;;;2.95;;
29934;SDS011;19905;53.370;-6.314;2023-09-19T03:09:07;17.45;;;2.92;;
29934;SDS011;19905;53.370;-6.314;2023-09-19T03:11:42;10.60;;;2.78;;
29934;SDS011;19905;53.370;-6.314;2023-09-19T03:14:13;14.70;;;2.92;;
29934;SDS011;19905;53.370;-6.314;2023-09-19T03:16:42;16.50;;;2.90;;
29934;SDS011;19905;53.370;-6.314;2023-09-19T03:19:11;16.48;;;2.50;;
29934;SDS011;19905;53.370;-6.314;2023-09-19T03:21:42;13.70;;;2.75;;
29934;SDS011;19905;53.370;-6.314;2023-09-19T03:24:11;12.80;;;2.72;;
29934;SDS011;19905;53.370;-6.314;2023-09-19T03:26:39;11.55;;;2.40;;
29934;SDS011;19905;53.370;-6.314;2023-09-19T03:29:10;11.82;;;2.58;;
29934;SDS011;19905;53.370;-6.314;2023-09-19T03:31:40;9.20;;;2.20;;
29934;SDS011;19905;53.370;-6.314;2023-09-19T03:34:09;15.57;;;2.65;;
29934;SDS011;19905;53.370;-6.314;2023-09-19T03:36:38;12.48;;;2.63;;
29934;SDS011;19905;53.370;-6.314;2023-09-19T03:39:07;9.15;;;2.20;;
29934;SDS011;19905;53.370;-6.314;2023-09-19T03:41:37;8.30;;;2.03;;
29934;SDS011;19905;53.370;-6.314;2023-09-19T03:44:07;6.50;;;1.75;;
29934;SDS011;19905;53.370;-6.314;2023-09-19T03:46:36;9.32;;;1.90;;
29934;SDS011;19905;53.370;-6.314;2023-09-19T03:49:05;11.77;;;2.20;;
29934;SDS011;19905;53.370;-6.314;2023-09-19T03:51:35;7.88;;;1.70;;
29934;SDS011;19905;53.370;-6.314;2023-09-19T03:54:04;10.10;;;1.92;;
29934;SDS011;19905;53.370;-6.314;2023-09-19T03:56:32;9.23;;;1.67;;
29934;SDS011;19905;53.370;-6.314;2023-09-19T03:59:01;8.48;;;1.65;;
29934;SDS011;19905;53.370;-6.314;2023-09-19T04:01:32;8.48;;;1.88;;
29934;SDS011;19905;53.370;-6.314;2023-09-19T04:04:00;7.10;;;2.20;;
29934;SDS011;19905;53.370;-6.314;2023-09-19T04:06:35;10.68;;;2.10;;
29934;SDS011;19905;53.370;-6.314;2023-09-19T04:09:04;7.43;;;2.38;;
29934;SDS011;19905;53.370;-6.314;2023-09-19T04:11:34;7.30;;;2.15;;
29934;SDS011;19905;53.370;-6.314;2023-09-19T04:14:04;6.30;;;1.80;;
29934;SDS011;19905;53.370;-6.314;2023-09-19T04:16:34;8.45;;;1.90;;
29934;SDS011;19905;53.370;-6.314;2023-09-19T04:19:03;12.55;;;2.15;;
29934;SDS011;19905;53.370;-6.314;2023-09-19T04:21:32;6.47;;;1.70;;
29934;SDS011;19905;53.370;-6.314;2023-09-19T04:24:01;7.70;;;1.80;;
29934;SDS011;19905;53.370;-6.314;2023-09-19T04:26:30;8.57;;;1.90;;
29934;SDS011;19905;53.370;-6.314;2023-09-19T04:29:00;4.55;;;1.50;;
29934;SDS011;19905;53.370;-6.314;2023-09-19T04:31:30;5.88;;;1.40;;
29934;SDS011;19905;53.370;-6.314;2023-09-19T04:34:01;5.18;;;1.58;;
29934;SDS011;19905;53.370;-6.314;2023-09-19T04:36:31;5.15;;;1.23;;
29934;SDS011;19905;53.370;-6.314;2023-09-19T04:39:02;5.30;;;1.80;;
29934;SDS011;19905;53.370;-6.314;2023-09-19T04:41:34;6.43;;;1.77;;
29934;SDS011;19905;53.370;-6.314;2023-09-19T04:44:04;5.22;;;1.50;;
29934;SDS011;19905;53.370;-6.314;2023-09-19T04:46:34;5.25;;;1.25;;
29934;SDS011;19905;53.370;-6.314;2023-09-19T04:49:06;3.38;;;1.08;;
29934;SDS011;19905;53.370;-6.314;2023-09-19T04:51:36;7.22;;;1.40;;
29934;SDS011;19905;53.370;-6.314;2023-09-19T04:54:05;6.47;;;1.40;;
29934;SDS011;19905;53.370;-6.314;2023-09-19T04:56:34;3.90;;;1.48;;
29934;SDS011;19905;53.370;-6.314;2023-09-19T04:59:03;3.60;;;0.90;;
29934;SDS011;19905;53.370;-6.314;2023-09-19T05:01:32;3.38;;;1.08;;
29934;SDS011;19905;53.370;-6.314;2023-09-19T05:04:01;2.97;;;0.93;;
29934;SDS011;19905;53.370;-6.314;2023-09-19T05:06:33;3.78;;;0.80;;
29934;SDS011;19905;53.370;-6.314;2023-09-19T05:09:03;4.72;;;1.30;;
29934;SDS011;19905;53.370;-6.314;2023-09-19T05:11:32;5.53;;;0.80;;
29934;SDS011;19905;53.370;-6.314;2023-09-19T05:14:02;6.38;;;0.90;;
29934;SDS011;19905;53.370;-6.314;2023-09-19T05:16:33;2.53;;;0.90;;
29934;SDS011;19905;53.370;-6.314;2023-09-19T05:19:02;1.77;;;0.70;;
29934;SDS011;19905;53.370;-6.314;2023-09-19T05:21:33;2.55;;;0.82;;
29934;SDS011;19905;53.370;-6.314;2023-09-19T05:24:01;3.30;;;0.70;;
29934;SDS011;19905;53.370;-6.314;2023-09-19T05:26:31;4.47;;;0.90;;
29934;SDS011;19905;53.370;-6.314;2023-09-19T05:29:00;3.33;;;0.82;;
29934;SDS011;19905;53.370;-6.314;2023-09-19T05:31:30;3.30;;;0.65;;
29934;SDS011;19905;53.370;-6.314;2023-09-19T05:33:59;2.67;;;0.70;;
29934;SDS011;19905;53.370;-6.314;2023-09-19T05:36:27;4.15;;;0.88;;
29934;SDS011;19905;53.370;-6.314;2023-09-19T05:39:00;1.63;;;0.55;;
29934;SDS011;19905;53.370;-6.314;2023-09-19T05:41:29;1.92;;;0.60;;
29934;SDS011;19905;53.370;-6.314;2023-09-19T05:43:58;3.03;;;0.60;;
29934;SDS011;19905;53.370;-6.314;2023-09-19T05:46:29;2.05;;;0.50;;
29934;SDS011;19905;53.370;-6.314;2023-09-19T05:48:58;3.97;;;0.50;;
29934;SDS011;19905;53.370;-6.314;2023-09-19T05:51:27;3.13;;;0.47;;
29934;SDS011;19905;53.370;-6.314;2023-09-19T05:53:55;1.88;;;0.47;;
29934;SDS011;19905;53.370;-6.314;2023-09-19T05:56:25;0.52;;;0.40;;
29934;SDS011;19905;53.370;-6.314;2023-09-19T05:59:02;2.40;;;0.35;;
29934;SDS011;19905;53.370;-6.314;2023-09-19T06:01:31;5.75;;;0.68;;
29934;SDS011;19905;53.370;-6.314;2023-09-19T06:04:01;1.92;;;0.55;;
29934;SDS011;19905;53.370;-6.314;2023-09-19T06:06:31;2.03;;;0.35;;
29934;SDS011;19905;53.370;-6.314;2023-09-19T06:09:00;1.67;;;0.40;;
29934;SDS011;19905;53.370;-6.314;2023-09-19T06:11:32;0.63;;;0.30;;
29934;SDS011;19905;53.370;-6.314;2023-09-19T06:14:02;1.05;;;0.30;;
29934;SDS011;19905;53.370;-6.314;2023-09-19T06:16:30;1.25;;;0.30;;
29934;SDS011;19905;53.370;-6.314;2023-09-19T06:18:59;2.00;;;0.30;;
29934;SDS011;19905;53.370;-6.314;2023-09-19T06:21:29;0.60;;;0.20;;
29934;SDS011;19905;53.370;-6.314;2023-09-19T06:23:59;0.80;;;0.22;;
29934;SDS011;19905;53.370;-6.314;2023-09-19T06:26:27;1.35;;;0.28;;
29934;SDS011;19905;53.370;-6.314;2023-09-19T06:28:58;0.95;;;0.20;;
29934;SDS011;19905;53.370;-6.314;2023-09-19T06:31:26;0.45;;;0.30;;
29934;SDS011;19905;53.370;-6.314;2023-09-19T06:33:55;0.38;;;0.20;;
29934;SDS011;19905;53.370;-6.314;2023-09-19T06:36:25;1.08;;;0.20;;
29934;SDS011;19905;53.370;-6.314;2023-09-19T06:38:53;0.57;;;0.22;;
29934;SDS011;19905;53.370;-6.314;2023-09-19T06:41:22;0.30;;;0.20;;
29934;SDS011;19905;53.370;-6.314;2023-09-19T06:43:51;1.77;;;0.20;;
29934;SDS011;19905;53.370;-6.314;2023-09-19T06:46:22;0.40;;;0.20;;
29934;SDS011;19905;53.370;-6.314;2023-09-19T06:48:52;1.77;;;0.10;;
29934;SDS011;19905;53.370;-6.314;2023-09-19T06:51:20;0.60;;;0.20;;
29934;SDS011;19905;53.370;-6.314;2023-09-19T06:53:49;2.80;;;0.30;;
29934;SDS011;19905;53.370;-6.314;2023-09-19T06:56:20;0.65;;;0.20;;
29934;SDS011;19905;53.370;-6.314;2023-09-19T06:58:52;0.10;;;0.10;;
29934;SDS011;19905;53.370;-6.314;2023-09-19T07:01:22;1.02;;;0.20;;
29934;SDS011;19905;53.370;-6.314;2023-09-19T07:03:52;0.40;;;0.20;;
29934;SDS011;19905;53.370;-6.314;2023-09-19T07:06:20;0.45;;;0.15;;
29934;SDS011;19905;53.370;-6.314;2023-09-19T07:08:49;2.10;;;0.20;;
29934;SDS011;19905;53.370;-6.314;2023-09-19T07:11:18;1.77;;;0.20;;
29934;SDS011;19905;53.370;-6.314;2023-09-19T07:13:48;0.98;;;0.20;;
29934;SDS011;19905;53.370;-6.314;2023-09-19T07:16:17;1.92;;;0.20;;
29934;SDS011;19905;53.370;-6.314;2023-09-19T07:18:56;1.00;;;0.10;;
29934;SDS011;19905;53.370;-6.314;2023-09-19T07:21:25;0.52;;;0.20;;
29934;SDS011;19905;53.370;-6.314;2023-09-19T07:23:54;0.57;;;0.30;;
29934;SDS011;19905;53.370;-6.314;2023-09-19T07:26:23;0.20;;;0.10;;
29934;SDS011;19905;53.370;-6.314;2023-09-19T07:28:52;0.30;;;0.10;;
29934;SDS011;19905;53.370;-6.314;2023-09-19T07:31:22;0.20;;;0.10;;
29934;SDS011;19905;53.370;-6.314;2023-09-19T07:33:52;1.65;;;0.25;;
29934;SDS011;19905;53.370;-6.314;2023-09-19T07:36:23;2.50;;;0.30;;
29934;SDS011;19905;53.370;-6.314;2023-09-19T07:38:52;0.38;;;0.20;;
29934;SDS011;19905;53.370;-6.314;2023-09-19T07:41:42;0.75;;;0.20;;
29934;SDS011;19905;53.370;-6.314;2023-09-19T07:44:11;1.02;;;0.35;;
29934;SDS011;19905;53.370;-6.314;2023-09-19T07:46:39;2.78;;;0.30;;
29934;SDS011;19905;53.370;-6.314;2023-09-19T07:49:08;1.67;;;0.20;;
29934;SDS011;19905;53.370;-6.314;2023-09-19T07:51:39;0.80;;;0.30;;
29934;SDS011;19905;53.370;-6.314;2023-09-19T07:54:08;1.00;;;0.20;;
29934;SDS011;19905;53.370;-6.314;2023-09-19T07:56:37;0.47;;;0.30;;
29934;SDS011;19905;53.370;-6.314;2023-09-19T07:59:06;2.47;;;0.20;;
29934;SDS011;19905;53.370;-6.314;2023-09-19T08:01:35;0.52;;;0.20;;
29934;SDS011;19905;53.370;-6.314;2023-09-19T08:04:04;1.52;;;0.30;;
29934;SDS011;19905;53.370;-6.314;2023-09-19T08:06:33;0.80;;;0.30;;
29934;SDS011;19905;53.370;-6.314;2023-09-19T08:09:03;1.33;;;0.25;;
29934;SDS011;19905;53.370;-6.314;2023-09-19T08:11:34;0.60;;;0.30;;
29934;SDS011;19905;53.370;-6.314;2023-09-19T08:14:03;2.30;;;0.63;;
29934;SDS011;19905;53.370;-6.314;2023-09-19T08:16:34;0.75;;;0.20;;
29934;SDS011;19905;53.370;-6.314;2023-09-19T08:19:03;1.35;;;0.20;;
29934;SDS011;19905;53.370;-6.314;2023-09-19T08:21:32;0.28;;;0.15;;
29934;SDS011;19905;53.370;-6.314;2023-09-19T08:24:03;0.98;;;0.20;;
29934;SDS011;19905;53.370;-6.314;2023-09-19T08:26:34;0.40;;;0.20;;
29934;SDS011;19905;53.370;-6.314;2023-09-19T08:29:04;1.05;;;0.30;;
29934;SDS011;19905;53.370;-6.314;2023-09-19T08:31:34;1.55;;;0.43;;
29934;SDS011;19905;53.370;-6.314;2023-09-19T08:34:02;0.88;;;0.20;;
29934;SDS011;19905;53.370;-6.314;2023-09-19T08:36:31;1.08;;;0.55;;
29934;SDS011;19905;53.370;-6.314;2023-09-19T08:38:59;0.88;;;0.30;;
29934;SDS011;19905;53.370;-6.314;2023-09-19T08:41:31;0.40;;;0.30;;
29934;SDS011;19905;53.370;-6.314;2023-09-19T08:44:00;0.90;;;0.20;;
29934;SDS011;19905;53.370;-6.314;2023-09-19T08:46:31;0.98;;;0.30;;
29934;SDS011;19905;53.370;-6.314;2023-09-19T08:49:07;1.67;;;0.30;;
29934;SDS011;19905;53.370;-6.314;2023-09-19T08:51:45;1.33;;;0.50;;
29934;SDS011;19905;53.370;-6.314;2023-09-19T08:54:17;0.80;;;0.50;;
29934;SDS011;19905;53.370;-6.314;2023-09-19T08:56:52;2.63;;;1.52;;
29934;SDS011;19905;53.370;-6.314;2023-09-19T08:59:22;3.35;;;0.80;;
29934;SDS011;19905;53.370;-6.314;2023-09-19T09:01:53;2.40;;;0.80;;
29934;SDS011;19905;53.370;-6.314;2023-09-19T09:04:24;1.08;;;0.40;;
29934;SDS011;19905;53.370;-6.314;2023-09-19T09:06:54;2.53;;;1.20;;
29934;SDS011;19905;53.370;-6.314;2023-09-19T09:09:25;2.55;;;0.70;;
29934;SDS011;19905;53.370;-6.314;2023-09-19T09:11:55;1.10;;;0.50;;
29934;SDS011;19905;53.370;-6.314;2023-09-19T09:14:26;1.83;;;0.50;;
29934;SDS011;19905;53.370;-6.314;2023-09-19T09:16:56;1.42;;;0.20;;
29934;SDS011;19905;53.370;-6.314;2023-09-19T09:19:26;1.08;;;0.35;;
29934;SDS011;19905;53.370;-6.314;2023-09-19T09:21:55;1.02;;;0.40;;
29934;SDS011;19905;53.370;-6.314;2023-09-19T09:24:34;0.68;;;0.20;;
29934;SDS011;19905;53.370;-6.314;2023-09-19T09:27:06;0.47;;;0.20;;
29934;SDS011;19905;53.370;-6.314;2023-09-19T09:29:46;0.20;;;0.20;;
29934;SDS011;19905;53.370;-6.314;2023-09-19T09:32:16;0.82;;;0.20;;
29934;SDS011;19905;53.370;-6.314;2023-09-19T09:34:52;0.80;;;0.20;;
29934;SDS011;19905;53.370;-6.314;2023-09-19T09:37:26;0.75;;;0.30;;
29934;SDS011;19905;53.370;-6.314;2023-09-19T09:39:59;0.88;;;0.30;;
29934;SDS011;19905;53.370;-6.314;2023-09-19T09:42:48;0.68;;;0.20;;
29934;SDS011;19905;53.370;-6.314;2023-09-19T09:45:19;1.23;;;0.20;;
29934;SDS011;19905;53.370;-6.314;2023-09-19T09:47:55;0.30;;;0.10;;
29934;SDS011;19905;53.370;-6.314;2023-09-19T09:50:27;0.77;;;0.30;;
29934;SDS011;19905;53.370;-6.314;2023-09-19T09:53:20;0.13;;;0.10;;
29934;SDS011;19905;53.370;-6.314;2023-09-19T09:56:00;0.20;;;0.13;;
29934;SDS011;19905;53.370;-6.314;2023-09-19T09:58:35;0.50;;;0.30;;
29934;SDS011;19905;53.370;-6.314;2023-09-19T10:01:04;0.85;;;0.20;;
29934;SDS011;19905;53.370;-6.314;2023-09-19T10:03:37;0.88;;;0.30;;
29934;SDS011;19905;53.370;-6.314;2023-09-19T10:06:12;0.38;;;0.20;;
29934;SDS011;19905;53.370;-6.314;2023-09-19T10:08:57;0.40;;;0.20;;
29934;SDS011;19905;53.370;-6.314;2023-09-19T10:11:32;0.32;;;0.20;;
29934;SDS011;19905;53.370;-6.314;2023-09-19T10:14:06;2.15;;;0.20;;
29934;SDS011;19905;53.370;-6.314;2023-09-19T10:16:36;1.35;;;0.30;;
29934;SDS011;19905;53.370;-6.314;2023-09-19T10:19:11;0.52;;;0.20;;
29934;SDS011;19905;53.370;-6.314;2023-09-19T10:21:54;0.77;;;0.40;;
29934;SDS011;19905;53.370;-6.314;2023-09-19T10:24:25;0.63;;;0.20;;
29934;SDS011;19905;53.370;-6.314;2023-09-19T10:26:56;2.40;;;0.30;;
29934;SDS011;19905;53.370;-6.314;2023-09-19T10:29:27;0.20;;;0.20;;
29934;SDS011;19905;53.370;-6.314;2023-09-19T10:31:58;0.45;;;0.22;;
29934;SDS011;19905;53.370;-6.314;2023-09-19T10:34:28;0.35;;;0.20;;
29934;SDS011;19905;53.370;-6.314;2023-09-19T10:36:59;0.70;;;0.20;;
29934;SDS011;19905;53.370;-6.314;2023-09-19T10:39:32;0.22;;;0.20;;
29934;SDS011;19905;53.370;-6.314;2023-09-19T10:42:02;0.40;;;0.30;;
29934;SDS011;19905;53.370;-6.314;2023-09-19T10:44:37;2.00;;;0.50;;
29934;SDS011;19905;53.370;-6.314;2023-09-19T10:47:07;0.65;;;0.30;;
29934;SDS011;19905;53.370;-6.314;2023-09-19T10:49:42;0.65;;;0.28;;
29934;SDS011;19905;53.370;-6.314;2023-09-19T10:52:13;0.80;;;0.20;;
29934;SDS011;19905;53.370;-6.314;2023-09-19T10:54:46;1.45;;;0.30;;
29934;SDS011;19905;53.370;-6.314;2023-09-19T10:57:19;1.20;;;0.30;;
29934;SDS011;19905;53.370;-6.314;2023-09-19T11:00:05;0.68;;;0.20;;
29934;SDS011;19905;53.370;-6.314;2023-09-19T11:06:02;0.20;;;0.20;;
29934;SDS011;19905;53.370;-6.314;2023-09-19T11:08:54;0.75;;;0.30;;
29934;SDS011;19905;53.370;-6.314;2023-09-19T11:11:39;1.50;;;0.20;;
29934;SDS011;19905;53.370;-6.314;2023-09-19T11:14:15;0.63;;;0.30;;
29934;SDS011;19905;53.370;-6.314;2023-09-19T11:20:20;0.90;;;0.30;;
29934;SDS011;19905;53.370;-6.314;2023-09-19T11:23:21;2.50;;;0.30;;
29934;SDS011;19905;53.370;-6.314;2023-09-19T11:25:52;0.32;;;0.30;;
29934;SDS011;19905;53.370;-6.314;2023-09-19T11:28:31;0.43;;;0.20;;
29934;SDS011;19905;53.370;-6.314;2023-09-19T11:40:15;0.60;;;0.30;;
29934;SDS011;19905;53.370;-6.314;2023-09-19T11:42:45;0.60;;;0.30;;
29934;SDS011;19905;53.370;-6.314;2023-09-19T11:48:32;0.60;;;0.22;;
29934;SDS011;19905;53.370;-6.314;2023-09-19T11:51:12;0.63;;;0.30;;
29934;SDS011;19905;53.370;-6.314;2023-09-19T11:53:54;2.28;;;0.35;;
29934;SDS011;19905;53.370;-6.314;2023-09-19T11:56:25;1.63;;;0.40;;
29934;SDS011;19905;53.370;-6.314;2023-09-19T11:58:57;2.28;;;0.43;;
29934;SDS011;19905;53.370;-6.314;2023-09-19T12:01:29;0.60;;;0.20;;
29934;SDS011;19905;53.370;-6.314;2023-09-19T12:04:01;0.88;;;0.28;;
29934;SDS011;19905;53.370;-6.314;2023-09-19T12:06:31;0.80;;;0.20;;
29934;SDS011;19905;53.370;-6.314;2023-09-19T12:09:00;1.70;;;0.30;;
29934;SDS011;19905;53.370;-6.314;2023-09-19T12:11:40;1.30;;;0.30;;
29934;SDS011;19905;53.370;-6.314;2023-09-19T12:14:11;2.13;;;0.30;;
29934;SDS011;19905;53.370;-6.314;2023-09-19T12:16:40;1.08;;;0.30;;
29934;SDS011;19905;53.370;-6.314;2023-09-19T12:19:23;0.80;;;0.25;;
29934;SDS011;19905;53.370;-6.314;2023-09-19T12:21:55;1.35;;;0.30;;
29934;SDS011;19905;53.370;-6.314;2023-09-19T12:24:31;1.05;;;0.40;;
29934;SDS011;19905;53.370;-6.314;2023-09-19T12:27:05;2.15;;;0.50;;
29934;SDS011;19905;53.370;-6.314;2023-09-19T12:29:42;2.78;;;0.40;;
29934;SDS011;19905;53.370;-6.314;2023-09-19T12:32:12;1.42;;;0.45;;
29934;SDS011;19905;53.370;-6.314;2023-09-19T12:34:50;2.38;;;0.40;;
29934;SDS011;19905;53.370;-6.314;2023-09-19T12:37:21;1.45;;;0.45;;
29934;SDS011;19905;53.370;-6.314;2023-09-19T12:40:04;1.70;;;0.40;;
29934;SDS011;19905;53.370;-6.314;2023-09-19T12:42:46;1.13;;;0.50;;
29934;SDS011;19905;53.370;-6.314;2023-09-19T12:45:15;1.27;;;0.50;;
29934;SDS011;19905;53.370;-6.314;2023-09-19T12:50:59;1.90;;;0.50;;
29934;SDS011;19905;53.370;-6.314;2023-09-19T12:53:33;1.52;;;0.40;;
29934;SDS011;19905;53.370;-6.314;2023-09-19T12:56:08;2.53;;;0.50;;
29934;SDS011;19905;53.370;-6.314;2023-09-19T12:58:52;2.97;;;0.52;;
29934;SDS011;19905;53.370;-6.314;2023-09-19T13:01:23;2.22;;;0.70;;
29934;SDS011;19905;53.370;-6.314;2023-09-19T13:04:11;3.95;;;0.82;;
29934;SDS011;19905;53.370;-6.314;2023-09-19T13:06:45;3.03;;;0.68;;
29934;SDS011;19905;53.370;-6.314;2023-09-19T13:09:16;3.33;;;0.70;;
29934;SDS011;19905;53.370;-6.314;2023-09-19T13:11:47;2.40;;;0.60;;
29934;SDS011;19905;53.370;-6.314;2023-09-19T13:14:19;3.63;;;0.60;;
29934;SDS011;19905;53.370;-6.314;2023-09-19T13:16:57;1.92;;;0.63;;
29934;SDS011;19905;53.370;-6.314;2023-09-19T13:19:40;2.95;;;0.63;;
29934;SDS011;19905;53.370;-6.314;2023-09-19T13:25:08;1.20;;;0.50;;
29934;SDS011;19905;53.370;-6.314;2023-09-19T13:27:41;3.72;;;1.00;;
29934;SDS011;19905;53.370;-6.314;2023-09-19T13:30:13;2.35;;;0.60;;
29934;SDS011;19905;53.370;-6.314;2023-09-19T13:32:42;2.17;;;0.60;;
29934;SDS011;19905;53.370;-6.314;2023-09-19T13:35:11;2.10;;;0.70;;
29934;SDS011;19905;53.370;-6.314;2023-09-19T13:37:41;2.35;;;0.60;;
29934;SDS011;19905;53.370;-6.314;2023-09-19T13:40:13;2.33;;;0.50;;
29934;SDS011;19905;53.370;-6.314;2023-09-19T13:42:43;3.72;;;0.57;;
29934;SDS011;19905;53.370;-6.314;2023-09-19T13:45:13;1.80;;;0.50;;
29934;SDS011;19905;53.370;-6.314;2023-09-19T13:47:44;1.48;;;0.63;;
29934;SDS011;19905;53.370;-6.314;2023-09-19T13:50:13;2.28;;;0.60;;
29934;SDS011;19905;53.370;-6.314;2023-09-19T13:52:43;3.17;;;0.82;;
29934;SDS011;19905;53.370;-6.314;2023-09-19T13:55:14;1.42;;;0.65;;
29934;SDS011;19905;53.370;-6.314;2023-09-19T13:57:46;2.13;;;0.60;;
29934;SDS011;19905;53.370;-6.314;2023-09-19T14:00:18;4.82;;;0.80;;
29934;SDS011;19905;53.370;-6.314;2023-09-19T14:02:46;3.08;;;0.80;;
29934;SDS011;19905;53.370;-6.314;2023-09-19T14:05:16;6.85;;;1.23;;
29934;SDS011;19905;53.370;-6.314;2023-09-19T14:07:45;6.95;;;1.05;;
29934;SDS011;19905;53.370;-6.314;2023-09-19T14:10:14;7.22;;;1.13;;
29934;SDS011;19905;53.370;-6.314;2023-09-19T14:12:44;5.22;;;1.20;;
29934;SDS011;19905;53.370;-6.314;2023-09-19T14:15:13;5.10;;;1.23;;
29934;SDS011;19905;53.370;-6.314;2023-09-19T14:17:44;3.00;;;1.00;;
29934;SDS011;19905;53.370;-6.314;2023-09-19T14:20:13;4.88;;;1.02;;
29934;SDS011;19905;53.370;-6.314;2023-09-19T14:22:42;3.72;;;0.93;;
29934;SDS011;19905;53.370;-6.314;2023-09-19T14:25:11;3.83;;;0.80;;
29934;SDS011;19905;53.370;-6.314;2023-09-19T14:27:40;3.33;;;0.77;;
29934;SDS011;19905;53.370;-6.314;2023-09-19T14:30:10;3.83;;;0.98;;
29934;SDS011;19905;53.370;-6.314;2023-09-19T14:32:39;4.68;;;1.05;;
29934;SDS011;19905;53.370;-6.314;2023-09-19T14:35:10;4.05;;;1.10;;
29934;SDS011;19905;53.370;-6.314;2023-09-19T14:37:41;6.38;;;1.50;;
29934;SDS011;19905;53.370;-6.314;2023-09-19T14:40:12;4.50;;;1.30;;
29934;SDS011;19905;53.370;-6.314;2023-09-19T14:42:42;9.45;;;1.50;;
29934;SDS011;19905;53.370;-6.314;2023-09-19T14:45:13;7.85;;;1.58;;
29934;SDS011;19905;53.370;-6.314;2023-09-19T14:47:46;7.95;;;1.77;;
29934;SDS011;19905;53.370;-6.314;2023-09-19T14:50:16;8.38;;;2.05;;
29934;SDS011;19905;53.370;-6.314;2023-09-19T14:52:45;10.75;;;2.30;;
29934;SDS011;19905;53.370;-6.314;2023-09-19T14:55:13;13.85;;;2.28;;
29934;SDS011;19905;53.370;-6.314;2023-09-19T14:57:42;12.93;;;2.25;;
29934;SDS011;19905;53.370;-6.314;2023-09-19T15:00:13;17.08;;;3.03;;
29934;SDS011;19905;53.370;-6.314;2023-09-19T15:02:43;14.60;;;3.25;;
29934;SDS011;19905;53.370;-6.314;2023-09-19T15:05:12;20.27;;;3.17;;
29934;SDS011;19905;53.370;-6.314;2023-09-19T15:07:47;16.27;;;2.83;;
29934;SDS011;19905;53.370;-6.314;2023-09-19T15:10:17;17.70;;;3.00;;
29934;SDS011;19905;53.370;-6.314;2023-09-19T15:12:46;15.55;;;3.03;;
29934;SDS011;19905;53.370;-6.314;2023-09-19T15:15:14;15.95;;;3.22;;
29934;SDS011;19905;53.370;-6.314;2023-09-19T15:17:44;17.25;;;3.53;;
29934;SDS011;19905;53.370;-6.314;2023-09-19T15:20:13;15.57;;;3.22;;
29934;SDS011;19905;53.370;-6.314;2023-09-19T15:22:47;15.85;;;3.15;;
29934;SDS011;19905;53.370;-6.314;2023-09-19T15:25:16;15.73;;;3.00;;